Sacramento, California
Traffic Map
Current Weather Conditions
Sacramento, California
Clear
Clear
28°
Feels Like: 28°
Wind Chill: 28° Ceiling: Unl
Heat Index: 28° Visibility: 10mi
Dew Point: 11° Wind: 6mph
Humidity: 34% Direction: 210° (SSW)
Pressure: 29.71in Gusts: 0mph
Raw Report DataKSAC 020353Z AUTO 21005KT 10SM CLR 28/11 A2971 RMK AO2 SLP059 T02830111
Traffic Incident Summary
Active as of:
Severity:
Category:
InformationThere was an issue retrieving the traffic information for this location. Please try a different location or try again shortly.
Advertisements
Track Severe Weather on mobile